createdAt,value
2022-08-17T00:00:44.062Z,25.39
2022-08-17T00:03:11.813Z,25.35
2022-08-17T00:05:47.927Z,25.32
2022-08-17T00:08:19.428Z,25.31
2022-08-17T00:10:47.935Z,25.29
2022-08-17T00:13:19.562Z,25.28
2022-08-17T00:15:48.534Z,25.25
2022-08-17T00:19:06.026Z,25.25
2022-08-17T00:21:10.664Z,25.18
2022-08-17T00:23:47.725Z,25.16
2022-08-17T00:26:34.643Z,25.15
2022-08-17T00:29:08.537Z,25.16
2022-08-17T00:31:38.634Z,25.15
2022-08-17T00:34:11.099Z,25.15
2022-08-17T00:36:40.530Z,25.14
2022-08-17T00:39:08.627Z,25.14
2022-08-17T00:41:36.700Z,25.13
2022-08-17T00:44:12.301Z,25.09
2022-08-17T00:46:43.291Z,25.06
2022-08-17T00:49:13.307Z,25.04
2022-08-17T00:51:47.399Z,25.01
2022-08-17T00:54:19.825Z,24.99
2022-08-17T00:56:52.161Z,24.97
2022-08-17T00:59:22.776Z,24.97
2022-08-17T01:01:51.985Z,24.93
2022-08-17T01:04:22.966Z,24.91
2022-08-17T01:06:54.686Z,24.89
2022-08-17T01:09:23.014Z,24.88
2022-08-17T01:11:52.392Z,24.88
2022-08-17T01:14:21.466Z,24.88
2022-08-17T01:16:50.673Z,24.87
2022-08-17T01:19:22.188Z,24.85
2022-08-17T01:21:56.138Z,24.82
2022-08-17T01:24:25.839Z,24.80
2022-08-17T01:26:53.912Z,24.76
2022-08-17T01:29:25.885Z,24.73
2022-08-17T01:31:57.816Z,24.71
2022-08-17T01:34:36.835Z,24.68
2022-08-17T01:37:12.240Z,24.66
2022-08-17T01:39:45.454Z,24.64
2022-08-17T01:42:20.277Z,24.63
2022-08-17T01:44:48.467Z,24.61
2022-08-17T01:47:16.569Z,24.59
2022-08-17T01:49:45.761Z,24.56
2022-08-17T01:52:14.495Z,24.51
2022-08-17T01:54:47.783Z,24.48
2022-08-17T01:57:16.127Z,24.46
2022-08-17T01:59:44.248Z,24.44
2022-08-17T02:02:12.382Z,24.41
2022-08-17T02:04:58.364Z,24.39
2022-08-17T02:07:27.063Z,24.36
2022-08-17T02:09:57.667Z,24.34
2022-08-17T02:12:37.252Z,24.30
2022-08-17T02:15:09.691Z,24.27
2022-08-17T02:17:37.762Z,24.25
2022-08-17T02:20:08.144Z,24.28
2022-08-17T02:22:37.367Z,24.27
2022-08-17T02:25:10.807Z,24.30
2022-08-17T02:27:40.250Z,24.31
2022-08-17T02:31:01.946Z,24.30
2022-08-17T02:33:00.266Z,24.32
2022-08-17T02:35:32.421Z,24.36
2022-08-17T02:38:01.772Z,24.39
2022-08-17T02:40:36.002Z,24.41
2022-08-17T02:43:05.673Z,24.45
2022-08-17T02:45:33.960Z,24.46
2022-08-17T02:48:02.138Z,24.48
2022-08-17T02:50:30.398Z,24.50
2022-08-17T02:53:02.532Z,24.54
2022-08-17T02:55:36.128Z,24.56
2022-08-17T02:58:04.710Z,24.59
2022-08-17T03:00:35.614Z,24.63
2022-08-17T03:03:06.028Z,24.64
2022-08-17T03:05:35.930Z,24.68
2022-08-17T03:08:04.652Z,24.64
2022-08-17T03:10:34.859Z,24.61
2022-08-17T03:13:02.922Z,24.59
2022-08-17T04:42:25.931Z,24.49
2022-08-17T04:44:54.231Z,24.58
2022-08-17T04:47:23.730Z,24.63
2022-08-17T04:49:53.593Z,24.70
2022-08-17T04:52:31.539Z,24.75
2022-08-17T04:55:10.855Z,24.76
2022-08-17T04:57:44.540Z,24.80
2022-08-17T05:00:14.448Z,24.78
2022-08-17T05:02:49.737Z,24.82
2022-08-17T05:05:20.209Z,24.88
2022-08-17T05:07:49.603Z,24.95
2022-08-17T05:10:18.217Z,25.01
2022-08-17T05:12:49.004Z,25.07
2022-08-17T05:15:17.329Z,25.15
2022-08-17T05:17:48.359Z,25.21
2022-08-17T05:20:16.844Z,25.27
2022-08-17T05:22:51.238Z,25.36
2022-08-17T05:25:25.542Z,25.43
2022-08-17T05:27:56.309Z,25.43
2022-08-17T05:30:27.948Z,25.49
2022-08-17T05:32:58.943Z,25.58
2022-08-17T05:35:28.958Z,25.65
2022-08-17T05:37:57.347Z,25.73
2022-08-17T05:40:27.372Z,25.80
2022-08-17T05:43:12.038Z,25.81
2022-08-17T05:45:54.324Z,25.86
2022-08-17T05:48:39.339Z,25.94
2022-08-17T05:51:33.209Z,25.98
2022-08-17T05:54:15.814Z,26.04
2022-08-17T05:57:04.370Z,26.09
2022-08-17T05:59:43.614Z,26.17
2022-08-17T06:02:21.391Z,26.28
2022-08-17T06:05:03.778Z,26.36
2022-08-17T06:07:37.822Z,26.43
2022-08-17T06:10:14.724Z,26.45
2022-08-17T06:12:57.147Z,26.41
2022-08-17T06:15:34.101Z,26.35
2022-08-17T06:18:05.449Z,26.26
2022-08-17T06:20:40.115Z,26.17
2022-08-17T06:23:14.397Z,26.15
2022-08-17T06:25:47.453Z,26.21
2022-08-17T06:28:24.357Z,26.25
2022-08-17T06:31:00.666Z,26.22
2022-08-17T06:33:34.859Z,26.20
2022-08-17T06:36:17.597Z,26.16
2022-08-17T06:39:00.133Z,26.17
2022-08-17T06:41:38.133Z,26.15
2022-08-17T06:44:43.211Z,26.10
2022-08-17T06:47:12.608Z,26.07
2022-08-17T06:49:54.650Z,26.06
2022-08-17T06:52:43.419Z,26.06
2022-08-17T06:55:21.422Z,26.04
2022-08-17T06:58:15.533Z,25.98
2022-08-17T07:00:48.371Z,26.01
2022-08-17T07:03:29.215Z,26.05
2022-08-17T07:06:03.169Z,26.07
2022-08-17T07:08:43.651Z,26.11
2022-08-17T07:11:19.361Z,26.19
2022-08-17T07:13:55.372Z,26.22
2022-08-17T07:16:29.231Z,26.24
2022-08-17T07:19:00.237Z,26.28
2022-08-17T07:21:40.977Z,26.28
2022-08-17T07:24:31.708Z,26.30
2022-08-17T07:27:13.674Z,26.32
2022-08-17T07:29:47.984Z,26.39
2022-08-17T07:32:19.587Z,26.43
2022-08-17T07:35:07.509Z,26.45
2022-08-17T07:37:40.194Z,26.47
2022-08-17T07:40:18.561Z,26.46
2022-08-17T07:43:23.465Z,26.49
2022-08-17T07:46:16.178Z,26.55
2022-08-17T07:48:49.725Z,26.64
2022-08-17T07:51:26.301Z,26.71
2022-08-17T07:54:12.896Z,26.78
2022-08-17T07:56:46.613Z,26.83
2022-08-17T07:59:18.150Z,26.89
2022-08-17T08:02:05.371Z,26.95
2022-08-17T08:07:38.325Z,27.10
2022-08-17T08:10:11.011Z,27.35
2022-08-17T08:12:41.320Z,27.55
2022-08-17T08:15:17.415Z,27.65
2022-08-17T08:17:54.208Z,27.75
2022-08-17T08:20:52.184Z,27.85
2022-08-17T08:23:34.930Z,27.95
2022-08-17T08:26:18.397Z,28.05
2022-08-17T08:28:52.968Z,28.18
2022-08-17T08:31:31.032Z,28.28
2022-08-17T08:34:47.415Z,28.37
2022-08-17T08:37:16.297Z,28.52
2022-08-17T08:40:00.332Z,28.67
2022-08-17T08:42:37.714Z,28.79
2022-08-17T08:45:20.577Z,28.92
2022-08-17T08:48:23.025Z,28.98
2022-08-17T08:51:03.561Z,29.01
2022-08-17T08:53:42.277Z,29.04
2022-08-17T08:56:17.659Z,29.01
2022-08-17T08:58:53.550Z,28.99
2022-08-17T09:01:31.300Z,29.00
2022-08-17T09:04:24.791Z,29.01
2022-08-17T09:07:09.294Z,28.99
2022-08-17T09:09:49.829Z,28.98
2022-08-17T09:12:29.294Z,28.99
2022-08-17T09:15:12.348Z,28.95
2022-08-17T09:18:08.565Z,28.87
2022-08-17T09:20:50.011Z,28.83
2022-08-17T09:23:32.561Z,28.84
2022-08-17T09:26:16.826Z,28.82
2022-08-17T09:28:53.102Z,28.80
2022-08-17T09:31:32.691Z,28.80
2022-08-17T09:34:06.733Z,28.91
2022-08-17T09:36:43.174Z,29.02
2022-08-17T09:39:16.455Z,29.14
2022-08-17T09:41:49.970Z,29.29
2022-08-17T09:44:26.009Z,29.41
2022-08-17T09:47:00.168Z,29.49
2022-08-17T09:49:32.848Z,29.53
2022-08-17T09:52:07.728Z,29.63
2022-08-17T09:54:40.279Z,29.77
2022-08-17T09:57:31.635Z,29.83
2022-08-17T10:00:16.583Z,30.06
2022-08-17T10:03:11.902Z,30.23
2022-08-17T10:05:48.257Z,30.48
2022-08-17T10:08:29.212Z,30.70
2022-08-17T10:11:08.652Z,30.85
2022-08-17T10:13:53.084Z,30.98
2022-08-17T10:16:28.735Z,30.91
2022-08-17T10:19:17.927Z,30.83
2022-08-17T10:22:34.653Z,30.84
2022-08-17T10:25:42.572Z,30.95
2022-08-17T10:28:25.876Z,31.21
2022-08-17T10:31:30.792Z,31.50
2022-08-17T10:34:04.758Z,31.87
2022-08-17T10:36:46.391Z,32.10
2022-08-17T10:39:27.052Z,32.39
2022-08-17T10:42:01.857Z,32.70
2022-08-17T10:44:46.447Z,33.04
2022-08-17T10:47:18.275Z,33.45
2022-08-17T10:49:49.757Z,33.74
2022-08-17T10:52:51.922Z,33.94
2022-08-17T10:55:22.070Z,34.08
2022-08-17T10:57:55.092Z,33.85
2022-08-17T11:01:00.168Z,33.49
2022-08-17T11:03:28.862Z,33.21
2022-08-17T11:06:06.385Z,33.11
2022-08-17T11:09:09.981Z,33.02
2022-08-17T11:12:09.503Z,33.08
2022-08-17T11:14:48.163Z,33.25
2022-08-17T11:17:30.836Z,33.27
2022-08-17T11:20:38.537Z,33.26
2022-08-17T11:23:43.583Z,33.13
2022-08-17T11:26:26.220Z,32.97
2022-08-17T11:29:01.474Z,32.75
2022-08-17T11:31:39.897Z,32.53
2022-08-17T11:34:18.590Z,32.40
2022-08-17T11:37:12.685Z,32.27
2022-08-17T11:40:08.317Z,32.16
2022-08-17T11:42:54.454Z,32.09
2022-08-17T11:45:55.404Z,32.08
2022-08-17T11:48:48.367Z,32.11
2022-08-17T11:51:34.744Z,32.13
2022-08-17T11:54:32.715Z,32.17
2022-08-17T11:56:56.851Z,32.25
2022-08-17T11:59:59.676Z,32.35
2022-08-17T12:02:47.442Z,32.52
2022-08-17T12:05:40.418Z,32.63
2022-08-17T12:08:20.375Z,32.89
2022-08-17T12:11:04.017Z,33.05
2022-08-17T12:13:39.560Z,33.18
2022-08-17T12:16:10.151Z,33.19
2022-08-17T12:18:42.281Z,33.05
2022-08-17T12:21:30.326Z,32.89
2022-08-17T12:24:06.595Z,32.76
2022-08-17T12:26:37.647Z,32.69
2022-08-17T12:29:18.413Z,32.71
2022-08-17T12:32:03.549Z,32.78
2022-08-17T12:34:40.804Z,32.88
2022-08-17T12:37:16.291Z,32.93
2022-08-17T12:39:52.740Z,32.96
2022-08-17T12:42:28.811Z,33.00
2022-08-17T12:44:57.453Z,33.03
2022-08-17T12:47:29.491Z,32.97
2022-08-17T12:50:29.192Z,32.78
2022-08-17T12:53:01.981Z,32.73
2022-08-17T12:55:39.013Z,32.57
2022-08-17T12:58:14.394Z,32.46
2022-08-17T13:00:49.866Z,32.34
2022-08-17T13:03:21.056Z,32.37
2022-08-17T13:05:59.961Z,32.41
2022-08-17T13:08:32.245Z,32.39
2022-08-17T13:11:03.136Z,32.42
2022-08-17T13:13:34.152Z,32.43
2022-08-17T13:16:05.067Z,32.42
2022-08-17T13:18:39.655Z,32.34
2022-08-17T13:21:23.345Z,32.28
2022-08-17T13:24:03.381Z,32.28
2022-08-17T13:26:34.938Z,32.32
2022-08-17T13:29:06.556Z,32.31
2022-08-17T13:31:51.993Z,32.29
2022-08-17T13:34:56.122Z,32.33
2022-08-17T13:37:33.170Z,32.39
2022-08-17T13:40:23.900Z,32.48
2022-08-17T13:42:54.325Z,32.54
2022-08-17T13:45:51.116Z,32.55
2022-08-17T13:48:30.336Z,32.68
2022-08-17T13:51:30.440Z,32.71
2022-08-17T13:54:22.262Z,32.67
2022-08-17T13:57:02.129Z,32.79
2022-08-17T13:59:52.714Z,32.88
2022-08-17T14:02:22.533Z,32.96
2022-08-17T14:04:54.462Z,33.04
2022-08-17T14:07:32.191Z,33.03
2022-08-17T14:10:06.821Z,33.04
2022-08-17T14:12:36.389Z,32.97
2022-08-17T14:15:05.418Z,32.86
2022-08-17T14:17:38.130Z,32.77
2022-08-17T14:20:10.683Z,32.64
2022-08-17T14:22:41.678Z,32.54
2022-08-17T14:25:13.570Z,32.37
2022-08-17T14:27:52.318Z,32.15
2022-08-17T14:30:24.947Z,31.98
2022-08-17T14:32:54.075Z,31.84
2022-08-17T14:35:24.479Z,31.71
2022-08-17T14:37:54.114Z,31.57
2022-08-17T14:40:25.768Z,31.52
2022-08-17T14:42:55.820Z,31.48
2022-08-17T14:45:29.652Z,31.48
2022-08-17T14:48:01.344Z,31.45
2022-08-17T14:50:29.676Z,31.41
2022-08-17T14:53:01.573Z,31.36
2022-08-17T14:55:32.661Z,31.33
2022-08-17T14:58:01.096Z,31.35
2022-08-17T15:00:29.653Z,31.33
2022-08-17T15:03:14.982Z,31.21
2022-08-17T15:05:57.173Z,31.13
2022-08-17T15:08:34.665Z,31.09
2022-08-17T15:11:24.419Z,30.93
2022-08-17T15:14:07.804Z,30.82
2022-08-17T15:16:40.417Z,30.77
2022-08-17T15:19:09.174Z,30.71
2022-08-17T15:21:37.834Z,30.68
2022-08-17T15:24:07.033Z,30.63
2022-08-17T15:26:37.970Z,30.56
2022-08-17T15:29:06.328Z,30.45
2022-08-17T15:31:34.714Z,30.39
2022-08-17T15:34:05.238Z,30.35
2022-08-17T15:36:36.440Z,30.26
2022-08-17T15:39:04.853Z,30.15
2022-08-17T15:41:33.291Z,30.02
2022-08-17T15:44:02.973Z,29.93
2022-08-17T15:46:31.531Z,29.87
2022-08-17T15:49:03.644Z,29.77
2022-08-17T15:51:34.906Z,29.71
2022-08-17T15:54:22.333Z,29.62
2022-08-17T15:56:51.707Z,29.45
2022-08-17T15:59:21.491Z,29.21
2022-08-17T16:03:01.563Z,28.58
2022-08-17T16:04:42.653Z,27.83
2022-08-17T16:07:12.670Z,27.41
2022-08-17T16:09:42.154Z,27.28
2022-08-17T16:12:13.060Z,27.22
2022-08-17T16:14:42.832Z,27.14
2022-08-17T16:17:38.668Z,27.02
2022-08-17T16:19:59.795Z,26.89
2022-08-17T16:22:35.596Z,26.83
2022-08-17T16:25:05.968Z,26.66
2022-08-17T16:27:34.352Z,26.52
2022-08-17T16:30:04.890Z,26.48
2022-08-17T16:32:33.191Z,26.48
2022-08-17T16:35:03.354Z,26.50
2022-08-17T16:37:32.086Z,26.55
2022-08-17T16:40:03.520Z,26.56
2022-08-17T16:42:34.101Z,26.54
2022-08-17T16:45:08.024Z,26.52
2022-08-17T16:47:44.640Z,26.52
2022-08-17T16:50:15.405Z,26.53
2022-08-17T16:52:44.004Z,26.51
2022-08-17T16:55:13.394Z,26.51
2022-08-17T16:57:47.562Z,26.50
2022-08-17T17:00:21.016Z,26.46
2022-08-17T17:02:50.068Z,26.45
2022-08-17T17:05:44.682Z,26.41
2022-08-17T17:08:25.665Z,26.39
2022-08-17T17:10:56.944Z,26.38
2022-08-17T17:13:32.308Z,26.38
2022-08-17T17:16:08.812Z,26.34
2022-08-17T17:18:42.733Z,26.34
2022-08-17T17:21:14.984Z,26.32
2022-08-17T17:23:55.080Z,26.26
2022-08-17T17:26:44.339Z,26.23
2022-08-17T17:29:27.279Z,26.18
2022-08-17T17:32:07.545Z,26.08
2022-08-17T17:34:36.403Z,26.02
2022-08-17T17:37:11.918Z,25.96
2022-08-17T17:39:49.030Z,25.95
2022-08-17T17:42:21.817Z,25.88
2022-08-17T17:44:56.179Z,25.83
2022-08-17T17:47:26.702Z,25.75
2022-08-17T17:49:54.984Z,25.68
2022-08-17T17:52:32.184Z,25.68
2022-08-17T17:55:08.678Z,25.61
2022-08-17T17:57:55.848Z,25.64
2022-08-17T18:00:27.243Z,25.64
2022-08-17T18:03:11.137Z,25.60
2022-08-17T18:05:49.741Z,25.61
2022-08-17T18:08:52.944Z,25.58
2022-08-17T18:11:58.972Z,25.58
2022-08-17T18:14:40.158Z,25.58
2022-08-17T18:17:08.703Z,25.58
2022-08-17T18:19:40.389Z,25.49
2022-08-17T18:22:14.070Z,25.50
2022-08-17T18:24:44.897Z,25.47
2022-08-17T18:27:26.516Z,25.43
2022-08-17T18:29:56.563Z,25.39
2022-08-17T18:32:34.551Z,25.35
2022-08-17T18:35:28.641Z,25.31
2022-08-17T18:37:59.575Z,25.30
2022-08-17T18:40:37.727Z,25.22
2022-08-17T18:43:13.469Z,25.17
2022-08-17T18:45:46.938Z,25.13
2022-08-17T18:48:25.360Z,25.05
2022-08-17T18:50:58.441Z,25.04
2022-08-17T18:54:02.730Z,25.01
2022-08-17T18:56:33.591Z,25.00
2022-08-17T18:59:14.473Z,25.03
2022-08-17T19:01:54.487Z,25.07
2022-08-17T19:04:35.431Z,25.05
2022-08-17T19:07:24.612Z,25.02
2022-08-17T19:09:57.614Z,24.98
2022-08-17T19:12:31.302Z,24.99
2022-08-17T19:15:01.243Z,24.97
2022-08-17T19:17:38.799Z,24.95
2022-08-17T19:20:15.376Z,25.01
2022-08-17T19:22:53.869Z,25.01
2022-08-17T19:25:27.290Z,25.04
2022-08-17T19:28:02.292Z,25.05
2022-08-17T19:30:31.970Z,25.06
2022-08-17T19:33:03.131Z,25.05
2022-08-17T19:35:42.324Z,25.09
2022-08-17T19:38:26.890Z,25.08
2022-08-17T19:41:04.956Z,25.12
2022-08-17T19:44:07.142Z,25.12
2022-08-17T19:46:48.554Z,25.14
2022-08-17T19:49:40.259Z,25.16
2022-08-17T19:52:36.532Z,25.14
2022-08-17T19:55:19.902Z,25.10
2022-08-17T19:58:01.914Z,25.06
2022-08-17T20:00:31.739Z,25.05
2022-08-17T20:03:06.340Z,25.04
2022-08-17T20:06:08.489Z,25.03
2022-08-17T20:08:30.230Z,25.01
2022-08-17T20:11:07.784Z,24.99
2022-08-17T20:13:41.193Z,24.93
2022-08-17T20:16:10.243Z,24.98
2022-08-17T20:18:47.600Z,25.00
2022-08-17T20:21:20.764Z,25.02
2022-08-17T20:23:54.452Z,25.02
2022-08-17T20:26:28.320Z,25.02
2022-08-17T20:29:10.691Z,24.97
2022-08-17T20:31:45.713Z,24.95
2022-08-17T20:34:36.895Z,24.92
2022-08-17T20:37:09.137Z,24.97
2022-08-17T20:39:42.776Z,25.00
2022-08-17T20:42:30.625Z,24.99
2022-08-17T20:45:02.837Z,25.03
2022-08-17T20:47:35.089Z,25.04
2022-08-17T20:50:07.009Z,25.05
2022-08-17T20:52:54.345Z,25.06
2022-08-17T20:55:53.193Z,25.04
2022-08-17T20:58:47.781Z,25.01
2022-08-17T21:01:35.477Z,24.98
2022-08-17T21:04:09.122Z,24.98
2022-08-17T21:07:17.324Z,24.98
2022-08-17T21:09:46.533Z,25.03
2022-08-17T21:12:42.574Z,25.04
2022-08-17T21:15:32.131Z,25.07
2022-08-17T21:18:09.766Z,25.10
2022-08-17T21:20:48.437Z,25.07
2022-08-17T21:23:37.692Z,25.03
2022-08-17T21:26:17.319Z,25.01
2022-08-17T21:29:17.923Z,24.99
2022-08-17T21:32:19.086Z,24.97
2022-08-17T21:35:20.375Z,24.94
2022-08-17T21:37:53.167Z,24.99
2022-08-17T21:40:26.204Z,25.02
2022-08-17T21:42:58.115Z,25.02
2022-08-17T21:45:28.819Z,25.03
2022-08-17T21:48:14.420Z,25.01
2022-08-17T21:50:46.134Z,25.02
2022-08-17T21:53:25.418Z,25.03
2022-08-17T21:55:55.393Z,25.04
2022-08-17T21:58:31.195Z,25.03
2022-08-17T22:01:23.496Z,24.94
2022-08-17T22:04:03.894Z,24.86
2022-08-17T22:06:38.067Z,24.76
2022-08-17T22:09:12.855Z,24.69
2022-08-17T22:12:07.315Z,24.64
2022-08-17T22:14:52.935Z,24.70
2022-08-17T22:17:24.978Z,24.71
2022-08-17T22:19:57.375Z,24.71
2022-08-17T22:22:33.562Z,24.74
2022-08-17T22:25:04.138Z,24.78
2022-08-17T22:27:56.463Z,24.77
2022-08-17T22:30:32.094Z,24.86
2022-08-17T22:33:01.873Z,24.87
2022-08-17T22:35:37.511Z,24.89
2022-08-17T22:38:33.699Z,24.89
2022-08-17T22:41:27.929Z,24.87
2022-08-17T22:43:57.480Z,24.93
2022-08-17T22:46:26.672Z,24.95
2022-08-17T22:48:57.894Z,24.98
2022-08-17T22:51:30.877Z,25.01
2022-08-17T22:54:31.229Z,24.99
2022-08-17T22:57:20.411Z,24.97
2022-08-17T22:59:51.123Z,24.97
2022-08-17T23:02:24.627Z,24.97
2022-08-17T23:04:57.490Z,24.98
2022-08-17T23:07:26.882Z,24.95
2022-08-17T23:09:55.450Z,24.95
2022-08-17T23:12:27.442Z,24.98
2022-08-17T23:15:01.594Z,25.00
2022-08-17T23:17:36.922Z,25.05
2022-08-17T23:20:08.502Z,25.08
2022-08-17T23:22:51.110Z,25.12
2022-08-17T23:25:28.109Z,25.13
2022-08-17T23:27:57.384Z,25.12
2022-08-17T23:30:28.544Z,25.17
2022-08-17T23:32:59.497Z,25.16
2022-08-17T23:35:39.931Z,25.17
2022-08-17T23:38:11.359Z,25.16
2022-08-17T23:40:40.157Z,25.17
2022-08-17T23:43:17.650Z,25.18
2022-08-17T23:45:51.935Z,25.18
2022-08-17T23:48:28.408Z,25.19
2022-08-17T23:51:09.149Z,25.16
2022-08-17T23:53:42.000Z,25.15
2022-08-17T23:56:11.628Z,25.13
2022-08-17T23:58:45.231Z,25.15
